KRKR/RKR METAR and TAF weather

Enter ICAO airport designator
Station Type Date Time Source
KRKR METAR 2021/03/05 14:15 UTC NOAA

KRKR 051415Z AUTO 00000KT 10SM -DZ OVC065 10/07 A3006 RMK AO2


Station Type Date Time Source
KRKR Decoded METAR 2021/03/05 14:15 UTC NOAA

Poteau, Robert S Kerr Airport, OK, United States (KRKR) 35-01-18N 094-37-17W
Mar 05, 2021 - 09:15 AM EST / 2021.03.05 1415 UTC
Wind: Calm:0
Visibility: 10 mile(s):0
Sky conditions: overcast
Weather: light drizzle
Temperature: 50 F (10 C)
Dew Point: 44 F (7 C)
Relative Humidity: 81%
Pressure (altimeter): 30.06 in. Hg (1017 hPa)
ob: KRKR 051415Z AUTO 00000KT 10SM -DZ OVC065 10/07 A3006 RMK AO2
cycle: 14

Station Type Date Time Source
KRKR TAF UTC NOAA

Error!

Example: see airport list